• Join FlightAware (Why Join?)
  • Login
  • US Flag 
02:54AM EDT


 

Airport Tracker/Info


-or-


 

Live Flight TrackerFlight Track Log ✈ N80702 ✈ 05-May-2013 ✈ W63 - KIAG

Flight Track Log - Related Links

Times and Time Zones

All times are in EDT time to prevent confusion due to time zone crossing. See the N80702 flight status page for this flight to view local times or setup timezone preferences in your user account.

Time Position Orientation Groundspeed Altitude Reporting Facility
EDT Latitude Longitude Course Direction KTS MPH feet Rate Location/Type
11:09AM 36.7008 -78.5789 North 156 180 2,000  Level Washington Center
11:10AM 36.7344 -78.5725 North 130 150 1,900 240 Descending Washington Center
11:11AM 36.7700 -78.5764 355° North 125 144 2,600 600 Climbing Washington Center
11:12AM 36.8011 -78.5800 355° North 119 137 3,200 540 Climbing Washington Center
11:13AM 36.8001 -78.5667 North  Level FlightAware Approximate
11:13AM 36.8344 -78.5814 358° North 119 137 3,800  Level Washington Center
11:14AM 36.8781 -78.5831 358° North 125 144 4,600 540 Climbing Washington Center
11:15AM 36.9158 -78.5844 358° North 125 144 4,900 300 Climbing Washington Center
11:16AM 36.9594 -78.5861 358° North 136 157 5,200 480 Climbing Washington Center
11:17AM 36.9992 -78.5878 358° North 141 162 5,900 660 Climbing Washington Center
11:18AM 37.0364 -78.5919 355° North 141 162 6,600 540 Climbing Washington Center
11:19AM 37.0761 -78.5961 355° North 141 162 7,000 180 Climbing Washington Center
11:20AM 37.1197 -78.5978 358° North 141 162 7,000  Level Washington Center
11:21AM 37.1678 -78.5969 North 151 174 7,000  Level Washington Center
11:22AM 37.2178 -78.5989 358° North 162 186 7,000  Level Washington Center
11:23AM 37.2658 -78.6033 356° North 162 186 7,000  Level Washington Center
11:24AM 37.3117 -78.6053 358° North 162 186 7,000  Level Washington Center
11:25AM 37.3572 -78.6097 356° North 162 186 7,000  Level Washington Center
11:26AM 37.4011 -78.6089 North 162 186 7,000  Level Washington Center
11:27AM 37.4469 -78.6133 356° North 162 186 7,000  Level Washington Center
11:28AM 37.4906 -78.6175 356° North 162 186 7,000  Level Washington Center
11:29AM 37.5428 -78.6169 360° North 162 186 7,000  Level Washington Center
11:30AM 37.5886 -78.6189 358° North 162 186 7,000  Level Washington Center
11:31AM 37.6344 -78.6233 356° North 162 186 7,000  Level Washington Center
11:32AM 37.6781 -78.6278 355° North 162 186 7,000  Level Washington Center
11:33AM 37.7197 -78.6294 358° North 162 186 7,000  Level Washington Center
11:34AM 37.7656 -78.6311 358° North 162 186 7,100  Climbing Washington Center
11:36AM 37.8500 -78.6333 359° North 165 190 7,100  Level Potomac TRACON
11:37AM 37.9000 -78.6333 360° North 168 193 7,100  Level Potomac TRACON
11:38AM 37.9500 -78.6333 360° North 164 189 7,100  Level Potomac TRACON
11:39AM 37.9833 -78.6333 360° North 162 186 7,100  Level Potomac TRACON
11:40AM 38.0333 -78.6500 345° North 163 188 7,100  Level Potomac TRACON
11:41AM 38.0833 -78.6500 360° North 159 183 7,100  Level Potomac TRACON
11:42AM 38.1167 -78.6500 360° North 162 186 7,100  Level Potomac TRACON
11:43AM 38.1667 -78.6500 360° North 164 189 7,100  Level Potomac TRACON
11:44AM 38.2167 -78.6500 360° North 163 188 7,100  Level Potomac TRACON
11:44AM 38.2364 -78.6583 342° North 172 198 7,100 -120 Level Washington Center
11:45AM 38.2758 -78.6597 358° North 170 196 7,000 -60 Descending Washington Center
11:46AM 38.3194 -78.6642 355° North 159 183 7,000  Level Washington Center
11:47AM 38.3633 -78.6633 North 159 183 7,000  Level Washington Center
11:48AM 38.4069 -78.6678 355° North 159 183 7,000  Level Washington Center
11:49AM 38.4531 -78.6672 North 159 183 7,000  Level Washington Center
11:50AM 38.4967 -78.6717 355° North 159 183 7,000  Level Washington Center
11:51AM 38.5425 -78.6736 358° North 159 183 7,000  Level Washington Center
11:52AM 38.5861 -78.6753 358° North 159 183 7,000  Level Washington Center
11:53AM 38.6319 -78.6772 358° North 159 183 7,000  Level Washington Center
11:54AM 38.6736 -78.6817 355° North 159 183 7,000  Level Washington Center
11:55AM 38.7172 -78.6833 358° North 159 183 7,000  Level Washington Center
11:56AM 38.7631 -78.6853 358° North 159 183 7,000  Level Washington Center
11:57AM 38.8069 -78.6872 358° North 159 183 7,000  Level Washington Center
11:58AM 38.8528 -78.6892 358° North 159 183 7,000  Level Washington Center
11:59AM 38.8964 -78.6911 358° North 159 183 7,000  Level Washington Center
12:00PM 38.9400 -78.6956 355° North 159 183 7,000  Level Washington Center
12:01PM 38.9858 -78.6975 358° North 159 183 7,000  Level Washington Center
12:02PM 39.0297 -78.6992 358° North 159 183 7,000  Level Washington Center
12:03PM 39.0733 -78.7011 358° North 159 183 7,000  Level Washington Center
12:04PM 39.1169 -78.7031 358° North 159 183 7,000  Level Washington Center
12:05PM 39.1608 -78.7075 356° North 159 183 7,000  Level Washington Center
12:06PM 39.2044 -78.7094 358° North 159 183 7,000  Level Washington Center
12:07PM 39.2503 -78.7086 North 159 183 7,000  Level Washington Center
12:08PM 39.2939 -78.7133 355° North 159 183 7,100  Climbing Washington Center
12:11PM 39.4100 -78.7267 355° North 163 188 7,000 -60 Descending Cleveland Center
12:12PM 39.4581 -78.7281 359° North 161 185 7,000  Level Cleveland Center
12:13PM 39.5039 -78.7322 356° North 161 185 7,000  Level Cleveland Center
12:14PM 39.5478 -78.7336 359° North 161 185 7,000  Level Cleveland Center
12:15PM 39.5936 -78.7378 356° North 163 188 7,100  Climbing Cleveland Center
12:16PM 39.6417 -78.7419 356° North 165 190 7,000 -60 Descending Cleveland Center
12:17PM 39.6833 -78.7433 359° North 159 183 7,000  Level Cleveland Center
12:18PM 39.7333 -78.7447 359° North 157 181 7,000  Level Cleveland Center
12:19PM 39.7792 -78.7461 359° North 158 182 7,100  Climbing Cleveland Center
12:20PM 39.8253 -78.7531 353° North 160 184 7,000 -60 Descending Cleveland Center
12:21PM 39.8692 -78.7547 358° North 160 184 7,000  Level Cleveland Center
12:22PM 39.9128 -78.7561 359° North 159 183 7,000  Level Cleveland Center
12:23PM 39.9586 -78.7575 359° North 168 193 7,000  Level Cleveland Center
12:24PM 40.0067 -78.7644 354° North 164 189 7,000  Level Cleveland Center
12:25PM 40.0506 -78.7658 359° North 160 184 7,000  Level Cleveland Center
12:26PM 40.0944 -78.7675 358° North 157 181 7,000  Level Cleveland Center
12:27PM 40.1383 -78.7689 359° North 157 181 7,100  Climbing Cleveland Center
12:28PM 40.1925 -78.7731 357° North 162 186 7,000 -60 Descending Cleveland Center
12:29PM 40.2383 -78.7744 359° North 164 189 7,000  Level Cleveland Center
12:30PM 40.2883 -78.7786 356° North 164 189 7,000  Level Cleveland Center
12:31PM 40.3303 -78.7828 356° North 161 185 7,000  Level Cleveland Center
12:32PM 40.3739 -78.7844 358° North 155 178 7,000  Level Cleveland Center
12:33PM 40.4200 -78.7886 356° North 156 180 7,000  Level Cleveland Center
12:34PM 40.4594 -78.7903 358° North 156 180 7,000  Level Cleveland Center
12:35PM 40.5033 -78.7919 358° North 158 182 7,000  Level Cleveland Center
12:36PM 40.5431 -78.7961 355° North 157 181 7,000  Level Cleveland Center
12:37PM 40.5847 -78.7978 358° North 153 176 7,000  Level Cleveland Center
12:38PM 40.6306 -78.7992 359° North 155 178 7,000  Level Cleveland Center
12:39PM 40.6744 -78.8008 358° North 158 182 7,000  Level Cleveland Center
12:41PM 40.7411 -78.8019 359° North 168 193 7,000  Level Cleveland Center
12:42PM 40.7850 -78.8061 356° North 163 188 7,000  Level Cleveland Center
12:43PM 40.8289 -78.8078 358° North 158 182 7,000  Level Cleveland Center
12:44PM 40.8706 -78.8119 356° North 158 182 7,000  Level Cleveland Center
12:45PM 40.9144 -78.8136 358° North 158 182 7,000  Level Cleveland Center
12:46PM 40.9583 -78.8153 358° North 158 182 7,100  Climbing Cleveland Center
12:47PM 41.0042 -78.8194 356° North 158 182 7,000 -60 Descending Cleveland Center
12:48PM 41.0481 -78.8239 356° North 158 182 7,000  Level Cleveland Center
12:49PM 41.0919 -78.8253 359° North 158 182 7,000  Level Cleveland Center
12:50PM 41.1378 -78.8297 356° North 158 182 7,000  Level Cleveland Center
12:51PM 41.1817 -78.8311 359° North 158 182 7,000  Level Cleveland Center
12:52PM 41.2275 -78.8356 356° North 158 182 7,000  Level Cleveland Center
12:53PM 41.2714 -78.8372 358° North 158 182 7,000  Level Cleveland Center
12:54PM 41.3172 -78.8414 356° North 158 182 7,000 -60 Level Cleveland Center
12:55PM 41.3611 -78.8431 358° North 158 182 6,900  Descending Cleveland Center
12:56PM 41.4069 -78.8472 356° North 158 182 7,000  Climbing Cleveland Center
12:57PM 41.4486 -78.8489 358° North 158 182 7,000  Level Cleveland Center
12:58PM 41.4944 -78.8506 358° North 158 182 7,000  Level Cleveland Center
12:59PM 41.5383 -78.8522 358° North 158 182 7,000  Level Cleveland Center
01:00PM 41.5800 -78.8567 355° North 158 182 7,000  Level Cleveland Center
01:01PM 41.6261 -78.8581 359° North 158 182 7,000  Level Cleveland Center
01:02PM 41.6700 -78.8625 356° North 158 182 7,000  Level Cleveland Center
01:03PM 41.7136 -78.8642 358° North 158 182 7,000  Level Cleveland Center
01:04PM 41.7553 -78.8658 358° North 158 182 7,000  Level Cleveland Center
01:05PM 41.7992 -78.8703 356° North 158 182 7,000  Level Cleveland Center
01:06PM 41.8431 -78.8747 356° North 158 182 7,000  Level Cleveland Center
01:07PM 41.8847 -78.8761 359° North 158 182 7,000 -60 Level Cleveland Center
01:08PM 41.9264 -78.8781 358° North 158 182 6,900 -60 Descending Cleveland Center
01:09PM 41.9703 -78.8822 356° North 153 176 6,900  Level Cleveland Center
01:10PM 42.0142 -78.8839 358° North 153 176 7,000  Climbing Cleveland Center
01:11PM 42.0581 -78.8883 356° North 158 182 7,000  Level Cleveland Center
01:12PM 42.0997 -78.8900 358° North 158 182 7,000  Level Cleveland Center
01:13PM 42.1456 -78.8917 358° North 158 182 7,000  Level Cleveland Center
01:14PM 42.1872 -78.8961 355° North 158 182 7,000  Level Cleveland Center
01:15PM 42.2353 -78.8950 North 163 188 7,000  Level Cleveland Center
01:16PM 42.2769 -78.8967 358° North 158 182 7,100  Climbing Cleveland Center
01:17PM 42.3186 -78.9011 355° North 158 182 7,000  Descending Cleveland Center
01:18PM 42.3625 -78.9056 356° North 152 175 7,100  Climbing Cleveland Center
01:19PM 42.4128 -78.9100 356° North 157 181 7,000  Descending Cleveland Center
01:20PM 42.4544 -78.9117 358° North 157 181 7,100  Climbing Cleveland Center
01:21PM 42.4942 -78.9161 355° North 157 181 7,100  Level Cleveland Center
01:22PM 42.5336 -78.9208 355° North 157 181 7,100  Level Cleveland Center
01:23PM 42.5733 -78.9197 North 150 173 7,100  Level Cleveland Center
01:24PM 42.6192 -78.9214 358° North 150 173 7,100  Level Cleveland Center
01:25PM 42.6631 -78.9231 358° North 150 173 7,100  Level Cleveland Center
01:26PM 42.7067 -78.9247 358° North 150 173 7,100  Level Cleveland Center
01:27PM 42.7464 -78.9292 355° North 150 173 7,100  Level Cleveland Center
01:28PM 42.7881 -78.9311 358° North 145 167 7,100 -420 Level Cleveland Center
01:30PM 42.8833 -78.9333 359° North 173 199 6,000 -540 Descending Buffalo TRACON
01:31PM 42.9167 -78.9333 360° North 160 184 5,500 -540 Descending Buffalo TRACON
01:32PM 42.9667 -78.9500 346° North 156 180 5,000 -360 Descending Buffalo TRACON
01:33PM 43.0000 -78.9667 340° North 112 129 4,800 -720 Descending Buffalo TRACON
01:34PM 43.0333 -78.9667 360° North 119 137 3,500 -1,020 Descending Buffalo TRACON
01:35PM 43.0667 -78.9833 340° North 114 131 2,700 -1,020 Descending Buffalo TRACON
01:36PM 43.0833 -78.9667 36° Northeast 95 109 1,500 -960 Descending Buffalo TRACON
01:37PM 43.1000 -78.9500 36° Northeast 86 99 800 -720 Descending Buffalo TRACON